Station info - map view · info · telemetry · weather · raw · status · beacons · messages · bulletins · browse · moving · my account
Callsign, ship name or locator: Clear       
It is possible to search using wildcards (*?) after a prefix. Example: OH*
APRS station DL5BF-9 - show graphs
Map loading...
Comment: 14.0V 31C HDOP01.0 SATS08
Last status: Bernd mobil - DOK A05
Location: 47°58.26' N 7°54.64' E - locator JN37WX93GB - show map - static map
1.8 miles West bearing 279° from Kirchzarten, Regierungsbezirk Freiburg, Baden-Württemberg, Germany [?]
2.7 miles West bearing 252° from Stegen, Regierungsbezirk Freiburg, Baden-Württemberg, Germany
51.2 miles Northwest bearing 325° from Zürich, Bezirk Zürich, Zurich, Switzerland
80.7 miles Southwest bearing 227° from Stuttgart, Regierungsbezirk Stuttgart, Baden-Württemberg, Germany
Last position: 2017-09-22 15:27:39 EDT (22h56m ago)
2017-09-22 21:27:39 CEST local time at Kirchzarten, Germany [?]
Altitude: 1188 ft
Course: 244°
Speed: 7 MPH
Device: Argent Data Systems: OpenTracker (tracker)
Last path: DL5BF-9>APOTC1 via WIDE1-1,WIDE2-1,qAS,DB0FRK-10 (good)
Positions stored: 26712
Packet rate: 35 seconds between packets on average during 1744 seconds.
Other SSIDs: DL5BF-3 DL5BF-5 DL5BF-7
Stations near current position of DL5BF-9 - show more
callsign distance last heard - EDT      callsign distance last heard - EDT
DB0FRK-1031.3 yards 211°2017-09-23 14:14:10 DO5TMM-70.5 miles 45°2017-09-22 10:17:28
DW19951.2 miles 4°2017-09-23 14:16:07 DH1GAP-92.5 miles 89°2017-09-23 05:03:02
DO1ULS-92.7 miles 264°2017-09-23 09:41:58 DB0FRG4.3 miles 192°2017-09-23 14:15:12
HB9TRT B4.6 miles 64°2017-09-07 17:57:47 HB9TRT-B4.6 miles 64°2017-09-07 17:57:57
HB9DS2 B4.6 miles 64°2017-09-09 05:07:19 HB9DS2-B4.6 miles 64°2017-09-09 05:07:29
DB0FRB4.7 miles 315°2017-09-16 16:52:25 DB0FRB-B4.7 miles 315°2017-09-23 14:19:42
DB0FRB B4.7 miles 315°2017-09-23 14:19:32 DO1JOM4.7 miles 308°2017-09-23 14:15:12
DK0FR4.7 miles 315°2017-09-23 14:15:12 A05-Treff4.9 miles 316°2017-09-22 17:56:20
DL1GKK-75.0 miles 317°2017-08-30 03:47:02 EDTF5.0 miles 316°2017-09-23 14:15:12
EW21755.3 miles 287°2017-09-23 14:12:56 DK9IG-95.4 miles 281°2017-09-23 13:09:32
Stations which heard DL5BF-9 directly on radio –
callsign pkts first heard - EDT last heard longest (tx => rx) longest at - EDT
DB0ZD 1 2017-09-13 14:50:14 2017-09-13 14:50:14 JN47HT > JN57CM 78.0 miles 103° 2017-09-13 14:50:14
HB9ZF-1 12 2017-09-13 14:20:57 2017-09-22 14:52:55 JN47CV > JN47KG 51.7 miles 145° 2017-09-13 15:19:00
HB9FM-4 8 2017-09-21 04:03:27 2017-09-21 09:37:09 JN37SR > JN37SM 14.5 miles 175° 2017-09-21 04:03:27
F6HOR-3 30 2017-09-01 00:44:42 2017-09-22 05:08:32 JN37XW > JN38OC 36.6 miles 287° 2017-09-13 03:40:58
F8KOX-4 11 2017-09-19 12:39:34 2017-09-21 10:10:40 JN37WX > JN37KT 48.5 miles 256° 2017-09-19 12:39:34
HB9XC-4 9 2017-09-21 03:46:59 2017-09-21 10:03:28 JN37UX > JN37OG 53.4 miles 204° 2017-09-21 03:46:59
HB9IPA 3 2017-09-21 04:12:14 2017-09-21 09:31:14 JN37SO > JN37TN 4.2 miles 153° 2017-09-21 04:12:14
HB9RF-10 21 2017-09-13 04:02:31 2017-09-22 14:47:58 JN47IW > JN47GA 62.1 miles 187° 2017-09-13 04:28:01
HB3YGT-10 13 2017-09-13 05:04:23 2017-09-13 10:16:02 JN47NQ > JN47LN 11.6 miles 219° 2017-09-13 05:04:23
HB9ZF-3 27 2017-09-13 04:50:40 2017-09-22 14:04:14 JN47IV > JN47HL 27.8 miles 189° 2017-09-22 07:55:52
HB9AW-10 1 2017-09-22 14:36:51 2017-09-22 14:36:51 JN47GU > JN47AB 59.4 miles 205° 2017-09-22 14:36:51
HB9TG 10 2017-09-13 04:49:38 2017-09-22 14:10:22 JN47JS > JN47MM 19.0 miles 154° 2017-09-22 08:04:37
DH2IW-10 2 2017-09-13 14:59:55 2017-09-22 05:44:38 JN47FV > JN48HB 13.9 miles 35° 2017-09-22 05:44:38
DB0VS 22 2017-09-13 04:19:15 2017-09-22 14:44:43 JN47IV > JN48EC 19.7 miles 317° 2017-09-22 07:53:47
HB9KOM-1 3 2017-09-13 04:49:07 2017-09-22 07:56:23 JN47JV > JN47OJ 38.4 miles 150° 2017-09-22 07:56:23
DB0DB-10 18 2017-09-21 03:48:30 2017-09-21 10:07:34 JN37TN > JN37US 16.6 miles 18° 2017-09-21 04:26:04
HB9FM-10 40 2017-09-21 03:53:39 2017-09-21 09:49:00 JN37SV > JN37SK 30.1 miles 182° 2017-09-21 03:53:39
DL7GAI-7 2 2017-09-13 05:09:43 2017-09-13 05:11:41 JN47NQ > JN47OQ 2.7 miles 75° 2017-09-13 05:09:43
DB0TIT-10 28 2017-09-13 03:59:25 2017-09-22 15:02:11 JN47HT > JN47CW 19.2 miles 298° 2017-09-22 14:30:13
DB0KLI-10 8 2017-09-13 15:03:39 2017-09-22 14:53:56 JN47EV > JN48JC 24.3 miles 53° 2017-09-22 14:53:56
DB0WBD-10 25 2017-09-13 03:58:54 2017-09-13 15:21:34 JN47GW > JN47ET 12.5 miles 236° 2017-09-13 04:20:47
DM0SAT-10 40 2017-09-13 04:33:10 2017-09-22 08:37:28 JN47HK > JN47JS 25.2 miles 25° 2017-09-22 08:20:34
DM0SAT-3 25 2017-09-13 04:33:12 2017-09-22 08:37:29 JN47JV > JN47JS 9.2 miles 159° 2017-09-13 04:33:12
HB9DQA-1 5 2017-09-13 10:21:02 2017-09-22 14:03:49 JN47JQ > JN47JP 4.4 miles 158° 2017-09-22 08:29:28
HB9JNJ-1 2 2017-09-13 14:26:42 2017-09-22 14:12:51 JN47HP > JN47IL 13.0 miles 156° 2017-09-22 14:12:51
DB0WV-10 2 2017-09-13 09:56:41 2017-09-22 07:54:50 JN47IV > JN47QT 31.9 miles 98° 2017-09-22 07:54:50
DH1GAP-10 1 2017-09-13 04:32:09 2017-09-13 04:32:09 JN47IV > JN47LU 9.5 miles 111° 2017-09-13 04:32:09
DB0FRK-10 157 2017-09-01 00:40:26 2017-09-22 15:27:39 JN35LH > JN37WX 188.8 miles 13° 2017-09-21 03:17:45
DB0ZKN 19 2017-09-13 05:03:27 2017-09-22 14:29:12 JN47HT > JN47OP 29.1 miles 111° 2017-09-22 14:29:12
HB9FXJ-10 1 2017-09-13 10:03:25 2017-09-13 10:03:25 JN47MO > JN47NN 3.2 miles 133° 2017-09-13 10:03:25
HB9NF-10 1 2017-09-13 14:25:41 2017-09-13 14:25:41 JN47HP > JN47KJ 21.9 miles 146° 2017-09-13 14:25:41
DB0LC-1 1 2017-09-13 05:03:56 2017-09-13 05:03:56 JN47NR > JN47WN 35.8 miles 105° 2017-09-13 05:03:56
HB9F-10 4 2017-09-13 14:16:56 2017-09-22 08:39:55 JN47EV > JN36WN 95.2 miles 195° 2017-09-13 15:13:50
DO2GR-10 67 2017-09-01 00:40:02 2017-09-22 15:14:27 JN37WX > JN47BV 13.6 miles 113° 2017-09-21 03:30:32
HB9TQL-10 6 2017-09-21 04:11:42 2017-09-21 09:31:43 JN37SO > JN37UM 9.4 miles 139° 2017-09-21 04:11:42

Only position packets which were originated by the station are shown here. The range statistics show some extra long hops, because some digipeaters do not correctly add themselves to the digipeater path. Please check the raw packets.
About this site
This page shows real-time information collected from the Automatic Position Reporting System Internet network (APRS-IS). APRS is used by amateur (ham) radio operators to transmit real-time position information, weather data, telemetry and messages over the radio. A vehicle equipped with a GPS receiver, a VHF transmitter or HF transceiver and a small computer device called a tracker transmits it's location, speed and course in a small data packet, which is then received by a nearby iGate receiving site which forwards the packet on the Internet. Systems connected to the Internet can send information on the APRS-IS without a radio transmitter, or collect and display information transmitted anywhere in the world.
FAQ · Blog · Discussion group · Linking to aprs.fi · AIS sites · Service status · Database statistics · Advertising on aprs.fi · Technical details · API · Change log · Planned changes · Credits and thanks · Terms Of Service · iPhone/iPad APRS